Time;durP1;ratioP1;P1;durP2;ratioP2;P2;SDS_P1;SDS_P2;PMS_P1;PMS_P2;Temp;Humidity;BMP_temperature;BMP_pressure;BME280_temperature;BME280_humidity;BME280_pressure;Samples;Min_cycle;Max_cycle;Signal;HPM_P1;HPM_P2
2022/10/16 00:00:10;;;;;;;45.80;27.13;;;;;;;12.03;100.00;99249.56;8498739;27;20083;-80
2022/10/16 00:04:30;;;;;;;44.45;24.90;;;;;;;12.02;100.00;99253.38;8495770;27;20546;-80
2022/10/16 00:08:32;;;;;;;40.92;23.80;;;;;;;11.99;100.00;99253.22;8481414;27;20039;-81
2022/10/16 00:12:32;;;;;;;41.92;23.08;;;;;;;11.94;100.00;99256.88;8510765;27;20081;-81
2022/10/16 00:16:37;;;;;;;37.65;24.23;;;;;;;11.92;100.00;99253.69;8471644;27;20111;-82
2022/10/16 00:20:37;;;;;;;37.22;23.10;;;;;;;11.94;100.00;99251.47;8514199;27;20052;-81
2022/10/16 00:24:38;;;;;;;37.55;23.63;;;;;;;11.97;100.00;99256.25;8452731;27;20538;-81
2022/10/16 00:28:39;;;;;;;36.30;21.85;;;;;;;12.00;100.00;99263.72;8490501;27;20053;-81
2022/10/16 00:32:40;;;;;;;37.53;21.45;;;;;;;12.02;100.00;99253.38;8506785;27;20061;-82
2022/10/16 00:36:41;;;;;;;33.90;20.20;;;;;;;12.03;100.00;99260.41;8471633;27;20146;-82
2022/10/16 00:40:42;;;;;;;31.77;19.27;;;;;;;12.01;100.00;99261.81;8508139;27;20050;-81
2022/10/16 00:44:57;;;;;;;33.28;18.50;;;;;;;12.01;100.00;99262.59;8508695;27;20047;-81
2022/10/16 00:49:11;;;;;;;25.80;17.30;;;;;;;12.01;100.00;99256.41;8501169;27;20066;-82
2022/10/16 00:53:12;;;;;;;28.02;17.08;;;;;;;12.02;100.00;99258.81;8509313;27;20135;-81
2022/10/16 00:57:13;;;;;;;28.92;16.50;;;;;;;12.03;100.00;99243.34;8497600;27;20047;-80
2022/10/16 01:01:14;;;;;;;24.67;14.00;;;;;;;12.03;100.00;99249.56;8505373;27;20505;-81
2022/10/16 01:05:15;;;;;;;23.88;14.13;;;;;;;12.03;100.00;99244.16;8476195;27;20137;-83
2022/10/16 01:09:25;;;;;;;19.17;12.30;;;;;;;12.03;100.00;99238.75;8470686;27;20139;-81
2022/10/16 01:13:47;;;;;;;18.75;11.90;;;;;;;12.05;100.00;99247.38;8476700;27;20043;-81
2022/10/16 01:18:04;;;;;;;21.00;12.43;;;;;;;12.06;100.00;99242.72;8495854;27;20100;-82
2022/10/16 01:22:06;;;;;;;20.55;11.68;;;;;;;12.05;100.00;99252.78;8455173;27;20039;-81
2022/10/16 01:26:29;;;;;;;20.45;11.25;;;;;;;12.07;100.00;99252.44;8506428;27;20043;-83
2022/10/16 01:30:32;;;;;;;16.88;11.43;;;;;;;12.03;100.00;99260.41;8502925;27;20459;-83
2022/10/16 01:34:38;;;;;;;18.27;10.73;;;;;;;12.03;100.00;99259.59;8506874;27;20039;-82
2022/10/16 01:38:40;;;;;;;17.70;10.80;;;;;;;12.00;100.00;99266.44;8500954;27;20039;-81
2022/10/16 01:42:44;;;;;;;18.55;11.65;;;;;;;12.00;100.00;99255.59;8478054;27;20121;-82
2022/10/16 01:46:46;;;;;;;17.88;11.48;;;;;;;11.99;100.00;99259.44;8480966;27;20043;-82
2022/10/16 01:51:16;;;;;;;20.98;11.10;;;;;;;11.98;100.00;99268.66;8511025;27;20478;-81
2022/10/16 01:55:24;;;;;;;17.08;10.80;;;;;;;11.96;100.00;99259.25;8504521;27;20418;-81
2022/10/16 01:59:26;;;;;;;16.67;10.32;;;;;;;11.97;100.00;99261.66;8476880;27;20069;-80
2022/10/16 02:03:27;;;;;;;19.35;10.25;;;;;;;12.00;100.00;99265.66;8384280;28;20059;-81
2022/10/16 02:07:29;;;;;;;18.45;9.73;;;;;;;12.00;100.00;99271.84;8385654;28;20076;-84
2022/10/16 02:11:30;;;;;;;13.02;9.35;;;;;;;12.02;100.00;99275.03;8401221;28;20052;-80
2022/10/16 02:15:31;;;;;;;15.23;9.10;;;;;;;12.02;100.00;99275.03;8394146;28;20579;-83
2022/10/16 02:19:32;;;;;;;15.10;9.20;;;;;;;12.02;100.00;99277.75;8397782;28;20097;-81
2022/10/16 02:24:00;;;;;;;14.27;8.55;;;;;;;12.03;100.00;99287.47;8355387;28;20588;-82
2022/10/16 02:28:38;;;;;;;20.15;9.40;;;;;;;12.03;100.00;99276.63;8387796;28;20040;-82
2022/10/16 02:32:42;;;;;;;16.80;8.50;;;;;;;12.04;100.00;99283.66;8278176;28;20052;-82
2022/10/16 02:36:44;;;;;;;12.55;8.10;;;;;;;12.07;100.00;99283.00;8349579;28;20163;-84
2022/10/16 02:40:45;;;;;;;11.65;7.80;;;;;;;12.08;100.00;99284.63;8346595;28;20079;-82
2022/10/16 02:44:46;;;;;;;16.00;8.38;;;;;;;12.08;100.00;99283.81;8346406;28;20048;-83
2022/10/16 02:48:47;;;;;;;12.82;8.02;;;;;;;12.08;100.00;99279.19;8343173;28;20068;-82
2022/10/16 02:52:48;;;;;;;16.58;8.55;;;;;;;12.09;100.00;99280.81;8347095;28;20041;-86
2022/10/16 02:56:49;;;;;;;10.90;7.65;;;;;;;12.11;100.00;99278.56;8343910;28;20041;-84
2022/10/16 03:00:50;;;;;;;17.48;8.98;;;;;;;12.09;100.00;99291.63;8344065;28;20049;-85
2022/10/16 03:04:51;;;;;;;14.80;8.23;;;;;;;12.09;100.00;99288.94;8348972;28;20047;-85
2022/10/16 03:08:52;;;;;;;12.05;8.02;;;;;;;12.11;100.00;99294.81;8410261;27;20051;-83
2022/10/16 03:12:52;;;;;;;12.00;7.82;;;;;;;12.11;100.00;99289.38;8469862;27;20377;-83
2022/10/16 03:16:54;;;;;;;15.38;8.10;;;;;;;12.14;100.00;99282.56;8465311;27;20058;-83
2022/10/16 03:20:54;;;;;;;15.07;7.93;;;;;;;12.13;100.00;99287.19;8502274;27;20138;-82
2022/10/16 03:24:55;;;;;;;20.38;8.18;;;;;;;12.12;100.00;99301.81;8496531;27;20043;-83
2022/10/16 03:28:56;;;;;;;12.05;8.02;;;;;;;12.15;100.00;99312.03;8503180;27;20468;-83
2022/10/16 03:32:57;;;;;;;11.40;7.47;;;;;;;12.15;100.00;99306.63;8503539;27;20103;-82
2022/10/16 03:36:58;;;;;;;12.38;7.82;;;;;;;12.12;100.00;99296.41;8444486;27;20043;-82
2022/10/16 03:40:59;;;;;;;12.52;8.65;;;;;;;12.12;100.00;99307.22;8506093;27;20072;-83
2022/10/16 03:45:00;;;;;;;13.35;8.05;;;;;;;12.14;100.00;99309.63;8497745;27;20091;-82
2022/10/16 03:49:01;;;;;;;15.15;8.13;;;;;;;12.14;100.00;99315.84;8462914;27;20061;-82
2022/10/16 03:53:01;;;;;;;10.90;7.60;;;;;;;12.15;100.00;99317.47;8504464;27;20158;-81
2022/10/16 03:57:02;;;;;;;15.27;8.13;;;;;;;12.14;100.00;99323.97;8499352;27;20039;-80
2022/10/16 04:01:03;;;;;;;13.70;7.53;;;;;;;12.15;100.00;99317.47;8498909;27;20122;-80
2022/10/16 04:05:05;;;;;;;18.92;8.45;;;;;;;12.15;100.00;99328.28;8496589;27;20185;-80
2022/10/16 04:09:05;;;;;;;12.88;8.07;;;;;;;12.17;100.00;99336.88;8498682;27;20081;-81
2022/10/16 04:13:07;;;;;;;15.13;7.53;;;;;;;12.18;100.00;99343.88;8456250;27;20054;-82
2022/10/16 04:17:07;;;;;;;17.33;8.07;;;;;;;12.18;100.00;99343.88;8504085;27;20389;-81
2022/10/16 04:21:09;;;;;;;11.93;8.20;;;;;;;12.18;100.00;99343.88;8500130;27;20047;-82
2022/10/16 04:25:11;;;;;;;12.32;7.95;;;;;;;12.19;100.00;99334.66;8503521;27;20043;-81
2022/10/16 04:29:12;;;;;;;10.88;8.10;;;;;;;12.18;100.00;99322.22;8467931;27;20058;-80
2022/10/16 04:33:13;;;;;;;12.23;7.88;;;;;;;12.19;100.00;99329.25;8504901;27;20050;-81
2022/10/16 04:37:14;;;;;;;12.80;8.40;;;;;;;12.16;100.00;99335.28;8503818;27;20400;-80
2022/10/16 04:41:15;;;;;;;15.95;8.45;;;;;;;12.15;100.00;99344.53;8510918;27;20137;-80
2022/10/16 04:45:16;;;;;;;12.25;8.13;;;;;;;12.12;100.00;99350.56;8502640;27;20503;-82
2022/10/16 04:49:17;;;;;;;13.60;7.60;;;;;;;12.07;100.00;99342.56;8502886;27;20179;-81
2022/10/16 04:53:18;;;;;;;23.52;12.57;;;;;;;12.02;100.00;99340.00;8464128;27;20047;-80
2022/10/16 04:57:18;;;;;;;43.72;20.30;;;;;;;11.98;100.00;99349.88;8510661;27;20125;-81
2022/10/16 05:01:21;;;;;;;40.50;19.33;;;;;;;11.99;100.00;99362.28;8464112;27;20047;-81
2022/10/16 05:05:22;;;;;;;21.23;10.85;;;;;;;12.02;100.00;99358.94;8459925;27;20501;-80
2022/10/16 05:09:23;;;;;;;17.70;10.70;;;;;;;12.04;100.00;99362.16;8479906;27;20047;-81
2022/10/16 05:13:26;;;;;;;14.82;9.55;;;;;;;12.08;100.00;99360.41;8454338;27;20051;-82
2022/10/16 05:17:27;;;;;;;17.70;12.27;;;;;;;12.11;100.00;99354.34;8504049;27;20421;-81
2022/10/16 05:21:28;;;;;;;17.13;11.82;;;;;;;12.14;100.00;99359.16;8504636;27;20027;-80
2022/10/16 05:25:29;;;;;;;14.30;10.25;;;;;;;12.15;100.00;99358.06;8505412;27;20064;-81
2022/10/16 05:29:30;;;;;;;36.92;17.05;;;;;;;12.18;100.00;99367.47;8509833;27;20074;-81
2022/10/16 05:33:31;;;;;;;26.52;14.13;;;;;;;12.19;100.00;99372.56;8494037;27;20047;-80
2022/10/16 05:37:33;;;;;;;29.70;16.05;;;;;;;12.18;100.00;99381.78;8502521;27;20039;-81
2022/10/16 05:41:34;;;;;;;28.73;16.88;;;;;;;12.18;100.00;99376.38;8509431;27;20035;-82
2022/10/16 05:45:34;;;;;;;33.13;18.65;;;;;;;12.16;100.00;99378.59;8507170;27;20406;-81
2022/10/16 05:49:35;;;;;;;27.88;16.52;;;;;;;12.14;100.00;99386.25;8499619;27;20514;-81
2022/10/16 05:53:38;;;;;;;22.15;13.90;;;;;;;12.15;100.00;99377.03;8505132;27;20047;-81
2022/10/16 05:57:39;;;;;;;17.95;12.32;;;;;;;12.15;100.00;99393.25;8469628;27;20043;-83
2022/10/16 06:01:43;;;;;;;23.58;14.18;;;;;;;12.17;100.00;99395.63;8507718;27;20039;-83
2022/10/16 06:05:44;;;;;;;23.98;14.65;;;;;;;12.20;100.00;99401.25;8470837;27;20046;-82
2022/10/16 06:09:48;;;;;;;23.15;13.80;;;;;;;12.25;100.00;99413.84;8498660;27;20078;-82
2022/10/16 06:13:56;;;;;;;19.77;13.45;;;;;;;12.30;100.00;99421.81;8497004;27;20046;-83
2022/10/16 06:17:57;;;;;;;64.13;27.52;;;;;;;12.31;100.00;99417.22;8496728;27;20047;-82
2022/10/16 06:22:02;;;;;;;36.72;18.50;;;;;;;12.33;100.00;99423.09;8501244;27;20043;-81
2022/10/16 06:26:11;;;;;;;45.80;22.60;;;;;;;12.33;100.00;99420.38;8508437;27;20027;-84
2022/10/16 06:30:12;;;;;;;40.15;19.92;;;;;;;12.36;100.00;99436.03;8499645;27;20489;-82
2022/10/16 06:34:13;;;;;;;39.22;19.98;;;;;;;12.39;100.00;99440.81;8499260;27;20182;-82
2022/10/16 06:38:14;;;;;;;36.53;18.77;;;;;;;12.46;100.00;99446.59;8503462;27;20047;-82
2022/10/16 06:42:15;;;;;;;28.42;17.20;;;;;;;12.50;100.00;99447.56;8507653;27;20039;-81
2022/10/16 06:46:19;;;;;;;26.75;16.50;;;;;;;12.55;100.00;99439.28;8449015;27;20038;-80
2022/10/16 06:50:20;;;;;;;35.25;17.92;;;;;;;12.60;100.00;99447.28;8496452;27;20350;-81
2022/10/16 06:54:21;;;;;;;26.63;15.63;;;;;;;12.65;100.00;99455.25;8496059;27;20542;-81
2022/10/16 06:58:22;;;;;;;26.17;15.27;;;;;;;12.67;100.00;99459.25;8498063;27;20077;-80
2022/10/16 07:02:24;;;;;;;25.73;15.23;;;;;;;12.71;100.00;99459.44;8502425;27;20377;-79
2022/10/16 07:06:26;;;;;;;19.23;12.68;;;;;;;12.75;100.00;99465.81;8497533;27;20035;-80
2022/10/16 07:10:27;;;;;;;24.50;13.93;;;;;;;12.82;100.00;99477.00;8500584;27;20035;-82
2022/10/16 07:14:29;;;;;;;22.02;13.50;;;;;;;12.91;100.00;99475.09;8491554;27;20058;-81
2022/10/16 07:18:32;;;;;;;21.00;12.60;;;;;;;13.03;100.00;99472.59;8501767;27;20076;-80
2022/10/16 07:22:32;;;;;;;19.80;12.75;;;;;;;13.17;100.00;99477.09;8500855;27;20433;-82
2022/10/16 07:26:35;;;;;;;25.67;15.82;;;;;;;13.32;100.00;99495.66;8477942;27;20095;-81
2022/10/16 07:30:37;;;;;;;32.75;14.60;;;;;;;13.51;100.00;99504.28;8500022;27;20039;-80
2022/10/16 07:34:38;;;;;;;24.08;14.57;;;;;;;13.65;100.00;99499.50;8509791;27;20516;-80
2022/10/16 07:38:38;;;;;;;20.50;13.38;;;;;;;13.75;100.00;99499.19;8500592;27;20083;-80
2022/10/16 07:42:40;;;;;;;24.20;14.80;;;;;;;13.79;100.00;99500.16;8504624;27;20036;-81
2022/10/16 07:46:40;;;;;;;28.20;17.23;;;;;;;13.74;100.00;99503.03;8454128;27;20039;-82
2022/10/16 07:50:42;;;;;;;51.17;31.60;;;;;;;13.70;100.00;99493.91;8519869;27;20400;-81
2022/10/16 07:54:42;;;;;;;37.78;23.00;;;;;;;13.74;100.00;99494.09;8504791;27;20047;-85
2022/10/16 07:58:45;;;;;;;23.23;15.45;;;;;;;13.84;100.00;99502.72;8506677;27;20038;-94
2022/10/16 08:02:46;;;;;;;25.50;15.65;;;;;;;13.94;100.00;99496.94;8465549;27;20057;-81
2022/10/16 08:06:47;;;;;;;24.88;15.68;;;;;;;14.05;100.00;99502.03;8510462;27;20039;-81
2022/10/16 08:10:48;;;;;;;25.58;15.15;;;;;;;14.20;100.00;99498.81;8500646;27;20107;-80
2022/10/16 08:14:49;;;;;;;23.92;14.48;;;;;;;14.35;100.00;99512.69;8510759;27;20268;-81
2022/10/16 08:18:51;;;;;;;30.33;16.45;;;;;;;14.44;100.00;99509.97;8505320;27;20054;-82
2022/10/16 08:22:53;;;;;;;22.30;12.88;;;;;;;14.53;100.00;99518.91;8504006;27;20042;-81
2022/10/16 08:26:54;;;;;;;19.88;11.20;;;;;;;14.67;100.00;99514.06;8502654;27;20043;-82
2022/10/16 08:30:56;;;;;;;22.92;12.43;;;;;;;14.83;100.00;99516.22;8508773;27;20112;-82
2022/10/16 08:34:57;;;;;;;27.70;11.30;;;;;;;14.99;100.00;99509.13;8505366;27;20096;-81
2022/10/16 08:38:58;;;;;;;17.15;10.55;;;;;;;15.15;100.00;99523.75;8498539;27;20098;-80
2022/10/16 08:43:19;;;;;;;24.25;9.95;;;;;;;15.28;99.45;99517.25;8500547;27;20039;-80
2022/10/16 08:47:24;;;;;;;16.88;10.40;;;;;;;15.42;99.27;99531.44;8401361;28;20087;-80
2022/10/16 08:51:28;;;;;;;17.20;10.13;;;;;;;15.54;98.74;99520.66;8387800;28;20067;-82
2022/10/16 08:56:01;;;;;;;19.83;10.98;;;;;;;15.75;98.48;99525.31;8401732;28;20048;-81
2022/10/16 09:00:13;;;;;;;22.95;10.43;;;;;;;15.96;97.82;99537.00;8240942;28;20078;-82
2022/10/16 09:05:04;;;;;;;19.50;8.93;;;;;;;16.13;97.02;99536.81;8216395;28;20054;-81
2022/10/16 09:09:32;;;;;;;10.75;7.05;;;;;;;16.26;96.74;99530.28;8156121;29;20068;-81
2022/10/16 09:13:59;;;;;;;13.43;7.18;;;;;;;16.44;95.88;99558.19;8165211;29;20051;-81
2022/10/16 09:18:16;;;;;;;13.82;6.45;;;;;;;16.59;94.24;99564.97;8112776;29;20055;-81
2022/10/16 09:22:18;;;;;;;10.82;6.13;;;;;;;16.67;94.17;99550.41;8134271;29;20052;-80
2022/10/16 09:26:21;;;;;;;10.93;5.97;;;;;;;16.80;94.14;99543.88;8117299;29;20506;-82
2022/10/16 09:30:28;;;;;;;8.20;6.03;;;;;;;16.84;93.42;99550.22;8133873;29;20490;-81
2022/10/16 09:34:34;;;;;;;7.57;5.50;;;;;;;16.84;93.26;99551.03;8114086;29;20909;-84
2022/10/16 09:38:39;;;;;;;7.75;5.22;;;;;;;16.98;92.83;99564.31;8148333;29;20107;-81
2022/10/16 09:42:40;;;;;;;9.90;4.72;;;;;;;17.16;91.70;99562.19;8172745;28;20145;-80
2022/10/16 09:46:42;;;;;;;6.22;4.38;;;;;;;17.26;90.61;99557.06;8347154;28;20135;-82
2022/10/16 09:50:42;;;;;;;6.10;4.03;;;;;;;17.48;90.18;99549.53;8348912;28;20053;-82
2022/10/16 09:54:51;;;;;;;6.57;3.97;;;;;;;17.63;89.21;99554.31;8439387;27;20391;-83
2022/10/16 09:58:59;;;;;;;5.63;4.23;;;;;;;17.78;87.84;99561.00;8506222;27;20559;-82
2022/10/16 10:03:01;;;;;;;11.85;4.15;;;;;;;17.89;87.48;99551.19;8510151;27;20042;-83
2022/10/16 10:07:02;;;;;;;7.30;4.28;;;;;;;17.94;87.02;99553.66;8465771;27;20427;-81
2022/10/16 10:11:04;;;;;;;7.15;3.90;;;;;;;18.06;86.34;99546.25;8495033;27;20100;-82
2022/10/16 10:15:11;;;;;;;4.97;4.25;;;;;;;18.09;85.31;99551.00;8495461;27;20051;-82
2022/10/16 10:19:23;;;;;;;5.80;4.95;;;;;;;18.04;85.46;99559.44;8494784;27;20055;-83
2022/10/16 10:23:26;;;;;;;7.82;4.60;;;;;;;18.17;85.29;99552.00;8468380;27;20057;-83
2022/10/16 10:27:48;;;;;;;12.38;4.47;;;;;;;18.21;84.82;99555.63;8492107;27;20053;-82
2022/10/16 10:32:11;;;;;;;7.45;4.30;;;;;;;18.11;85.50;99559.66;8477091;27;20047;-82
2022/10/16 10:36:25;;;;;;;7.75;4.38;;;;;;;18.14;85.20;99558.94;8490643;27;20058;-82
2022/10/16 10:40:39;;;;;;;5.38;4.20;;;;;;;18.27;85.15;99567.09;8494636;27;20126;-82
2022/10/16 10:45:08;;;;;;;8.23;4.13;;;;;;;18.27;85.41;99562.44;8495017;27;20047;-81
2022/10/16 10:49:21;;;;;;;6.30;4.73;;;;;;;18.21;85.86;99573.97;8502807;27;20046;-82
2022/10/16 10:53:34;;;;;;;5.07;3.67;;;;;;;18.28;86.04;99568.72;8514117;27;20058;-83
2022/10/16 10:57:49;;;;;;;6.25;4.47;;;;;;;18.65;84.88;99561.94;8501043;27;20047;-83
2022/10/16 11:02:02;;;;;;;8.80;4.32;;;;;;;18.98;83.83;99559.66;8485635;27;20485;-82
2022/10/16 11:06:07;;;;;;;4.20;3.55;;;;;;;19.36;82.85;99558.19;8495030;27;20054;-83
2022/10/16 11:10:25;;;;;;;4.28;2.90;;;;;;;19.75;80.52;99553.66;8501383;27;20051;-83
2022/10/16 11:14:31;;;;;;;5.38;3.25;;;;;;;20.01;77.66;99562.03;8482036;27;20126;-82
2022/10/16 11:18:45;;;;;;;4.85;3.03;;;;;;;20.03;78.58;99564.41;8406040;28;20128;-83
2022/10/16 11:22:50;;;;;;;3.05;2.75;;;;;;;19.81;77.96;99563.97;8406148;28;20048;-82
2022/10/16 11:26:54;;;;;;;6.30;3.00;;;;;;;20.00;77.11;99554.16;8381381;28;20506;-81
2022/10/16 11:31:18;;;;;;;2.95;2.50;;;;;;;20.11;76.85;99544.22;8387615;28;20056;-82
2022/10/16 11:35:34;;;;;;;4.20;2.42;;;;;;;20.15;76.08;99542.31;8379743;28;20129;-83
2022/10/16 11:39:35;;;;;;;5.97;2.38;;;;;;;20.17;75.60;99537.28;8369755;28;20063;-83
2022/10/16 11:43:48;;;;;;;3.53;2.67;;;;;;;20.24;75.73;99527.25;8370969;28;20060;-82
2022/10/16 11:47:58;;;;;;;2.70;2.50;;;;;;;20.24;75.62;99532.75;8370725;28;20136;-82
2022/10/16 11:52:13;;;;;;;11.23;3.03;;;;;;;19.93;76.10;99537.59;8387990;28;20045;-83
2022/10/16 11:56:19;;;;;;;3.70;2.88;;;;;;;19.76;77.00;99550.56;8310586;28;20061;-83
2022/10/16 12:00:52;;;;;;;3.15;2.47;;;;;;;19.70;77.74;99557.47;8317243;28;20085;-83
2022/10/16 12:05:25;;;;;;;5.70;2.22;;;;;;;19.70;77.48;99549.25;8253713;28;20058;-81
2022/10/16 12:09:28;;;;;;;3.58;1.90;;;;;;;19.67;77.12;99552.69;8252715;28;20504;-83
2022/10/16 12:13:39;;;;;;;3.22;2.05;;;;;;;19.64;77.18;99547.94;8254396;28;20062;-82
2022/10/16 12:17:40;;;;;;;4.43;2.28;;;;;;;19.58;76.96;99549.34;8256052;28;20053;-81
2022/10/16 12:21:42;;;;;;;3.25;2.20;;;;;;;19.54;77.04;99553.97;8245857;28;20062;-81
2022/10/16 12:25:57;;;;;;;4.57;2.53;;;;;;;19.48;77.42;99560.88;8266004;28;20076;-83
2022/10/16 12:30:00;;;;;;;4.70;2.45;;;;;;;19.45;76.98;99578.03;8288043;28;20099;-81
2022/10/16 12:34:02;;;;;;;3.30;2.40;;;;;;;19.41;77.27;99582.56;8291962;28;20070;-82
2022/10/16 12:38:08;;;;;;;5.93;2.63;;;;;;;19.39;77.79;99579.41;8295040;28;20057;-81
2022/10/16 12:42:27;;;;;;;4.30;2.85;;;;;;;19.38;77.72;99572.34;8335188;28;20048;-83
2022/10/16 12:46:32;;;;;;;3.47;2.58;;;;;;;19.39;76.95;99595.84;8459381;27;20054;-81
2022/10/16 12:50:38;;;;;;;3.45;2.83;;;;;;;19.42;77.11;99595.13;8509270;27;20043;-82
2022/10/16 12:54:41;;;;;;;3.67;2.53;;;;;;;19.51;77.39;99598.50;8482030;27;20120;-82
2022/10/16 12:59:18;;;;;;;7.15;2.55;;;;;;;19.86;76.72;99586.75;8528143;27;20051;-81
2022/10/16 13:03:39;;;;;;;2.90;2.47;;;;;;;20.21;75.96;99606.69;8448047;27;20043;-81
2022/10/16 13:07:49;;;;;;;4.43;2.88;;;;;;;20.09;75.83;99612.34;8479524;27;20048;-80
2022/10/16 13:12:14;;;;;;;5.35;3.35;;;;;;;20.05;76.01;99616.94;8500176;27;20050;-82
2022/10/16 13:16:18;;;;;;;5.47;3.30;;;;;;;20.04;76.03;99609.88;8500530;27;20043;-81
2022/10/16 13:20:40;;;;;;;4.93;3.15;;;;;;;20.01;75.58;99610.59;8511251;27;20542;-82
2022/10/16 13:25:02;;;;;;;4.22;2.95;;;;;;;19.99;75.67;99612.88;8498937;27;20392;-81
2022/10/16 13:29:03;;;;;;;3.83;3.42;;;;;;;20.04;75.29;99620.84;8504524;27;20403;-82
2022/10/16 13:33:15;;;;;;;5.88;3.30;;;;;;;20.03;75.39;99624.75;8487861;27;20101;-81
2022/10/16 13:37:21;;;;;;;5.80;3.33;;;;;;;19.85;75.39;99629.03;8518234;27;20047;-83
2022/10/16 13:41:22;;;;;;;4.55;3.50;;;;;;;19.72;76.21;99631.88;8525955;27;20059;-84
2022/10/16 13:45:28;;;;;;;4.35;3.53;;;;;;;19.66;76.94;99627.84;8496508;27;20157;-82
2022/10/16 13:49:29;;;;;;;8.70;3.75;;;;;;;19.54;77.35;99636.16;8500226;27;20058;-83
2022/10/16 13:53:31;;;;;;;6.95;3.85;;;;;;;19.53;77.36;99623.59;8525361;27;20055;-82
2022/10/16 13:57:32;;;;;;;12.18;4.13;;;;;;;19.58;77.09;99631.53;8493226;27;20039;-82
2022/10/16 14:01:44;;;;;;;7.32;4.10;;;;;;;19.58;77.02;99637.03;8506251;27;20092;-82
2022/10/16 14:05:49;;;;;;;6.05;4.28;;;;;;;19.63;77.55;99644.19;8483694;27;20058;-83
2022/10/16 14:09:52;;;;;;;6.28;4.35;;;;;;;19.66;77.55;99649.75;8486946;27;20081;-84
2022/10/16 14:13:53;;;;;;;6.72;4.25;;;;;;;19.59;77.54;99657.81;8465359;27;20049;-82
2022/10/16 14:17:54;;;;;;;7.50;4.82;;;;;;;19.47;78.09;99657.88;8527536;27;20487;-83
2022/10/16 14:21:56;;;;;;;5.68;4.50;;;;;;;19.34;78.52;99675.53;8503991;27;20039;-82
2022/10/16 14:26:27;;;;;;;9.00;5.10;;;;;;;19.22;79.11;99672.88;8495883;27;20531;-82
2022/10/16 14:30:32;;;;;;;12.50;5.20;;;;;;;19.20;79.08;99675.16;8336692;28;20060;-83
2022/10/16 14:34:35;;;;;;;11.43;5.45;;;;;;;19.09;79.51;99663.16;8315003;28;20066;-82
2022/10/16 14:38:38;;;;;;;7.95;4.95;;;;;;;18.99;80.04;99665.25;8355714;28;20063;-82
2022/10/16 14:42:43;;;;;;;6.75;5.22;;;;;;;18.88;80.56;99658.69;8331861;28;20092;-82
2022/10/16 14:46:45;;;;;;;8.75;5.00;;;;;;;18.80;81.10;99667.88;8341368;28;20056;-82
2022/10/16 14:50:46;;;;;;;6.35;5.10;;;;;;;18.72;81.56;99668.81;8326772;28;20060;-82
2022/10/16 14:54:54;;;;;;;10.30;5.03;;;;;;;18.65;81.99;99665.88;8351293;28;20052;-82
2022/10/16 14:58:55;;;;;;;6.85;5.50;;;;;;;18.63;82.05;99673.63;8348859;28;20049;-84
2022/10/16 15:02:56;;;;;;;7.18;5.32;;;;;;;18.62;82.19;99677.50;8382124;28;20456;-83
2022/10/16 15:06:57;;;;;;;7.85;5.13;;;;;;;18.58;82.48;99682.09;8461312;27;20123;-82
2022/10/16 15:10:59;;;;;;;8.70;5.65;;;;;;;18.53;82.83;99679.56;8504708;27;20149;-83
2022/10/16 15:14:59;;;;;;;9.35;6.40;;;;;;;18.43;83.33;99691.00;8502130;27;20042;-83
2022/10/16 15:19:01;;;;;;;9.45;5.95;;;;;;;18.35;83.71;99689.19;8513847;27;20067;-83
2022/10/16 15:23:22;;;;;;;8.77;5.78;;;;;;;18.24;84.56;99699.03;8502017;27;20032;-82
2022/10/16 15:27:23;;;;;;;8.18;5.88;;;;;;;18.15;84.91;99702.69;8484117;27;20039;-83
2022/10/16 15:31:24;;;;;;;6.40;5.20;;;;;;;18.10;85.48;99705.66;8501031;27;20054;-83
2022/10/16 15:35:25;;;;;;;8.30;5.88;;;;;;;18.04;85.81;99698.81;8500870;27;20038;-83
2022/10/16 15:39:26;;;;;;;12.57;8.10;;;;;;;17.94;86.21;99695.75;8500931;27;20054;-83
2022/10/16 15:43:28;;;;;;;22.83;10.93;;;;;;;17.83;87.14;99700.91;8505975;27;20316;-84
2022/10/16 15:47:29;;;;;;;44.33;17.20;;;;;;;17.73;87.47;99706.81;8495790;27;20494;-83
2022/10/16 15:51:32;;;;;;;66.82;25.83;;;;;;;17.60;87.98;99713.44;8503361;27;20082;-83
2022/10/16 15:55:33;;;;;;;53.42;23.50;;;;;;;17.51;88.62;99720.88;8443705;27;20047;-83
2022/10/16 15:59:35;;;;;;;45.80;22.00;;;;;;;17.39;89.26;99729.88;8501364;27;20047;-83
2022/10/16 16:03:39;;;;;;;49.03;20.92;;;;;;;17.26;89.81;99720.84;8509623;27;20043;-83
2022/10/16 16:07:40;;;;;;;48.85;22.88;;;;;;;17.13;90.34;99727.41;8517200;27;20042;-83
2022/10/16 16:11:42;;;;;;;39.65;20.77;;;;;;;17.04;90.79;99723.97;8520993;27;20120;-83
2022/10/16 16:15:43;;;;;;;68.53;32.58;;;;;;;16.96;91.11;99727.59;8468816;27;20047;-82
2022/10/16 16:19:44;;;;;;;77.93;37.15;;;;;;;16.90;91.35;99734.38;8520560;27;20043;-83
2022/10/16 16:23:45;;;;;;;65.90;34.85;;;;;;;16.86;91.56;99744.38;8482862;27;20118;-83
2022/10/16 16:27:47;;;;;;;81.88;34.92;;;;;;;16.83;91.54;99745.03;8501713;27;20094;-83
2022/10/16 16:31:49;;;;;;;98.70;33.92;;;;;;;16.79;91.93;99750.38;8499249;27;20078;-83
2022/10/16 16:35:50;;;;;;;88.53;32.97;;;;;;;16.79;92.06;99765.94;8510493;27;20066;-83
2022/10/16 16:39:51;;;;;;;92.72;35.65;;;;;;;16.77;92.15;99768.19;8428706;27;20050;-83
2022/10/16 16:43:53;;;;;;;47.78;22.95;;;;;;;16.77;92.46;99773.63;8499193;27;20522;-82
2022/10/16 16:47:54;;;;;;;41.25;21.05;;;;;;;16.78;92.45;99780.69;8498159;27;20039;-82
2022/10/16 16:51:55;;;;;;;31.20;18.27;;;;;;;16.78;92.35;99786.16;8512421;27;20047;-83
2022/10/16 16:56:01;;;;;;;37.55;15.63;;;;;;;16.79;92.25;99787.75;8471399;27;20486;-83
2022/10/16 17:00:03;;;;;;;24.38;13.50;;;;;;;16.82;92.38;99797.97;8511574;27;20047;-83
2022/10/16 17:04:07;;;;;;;30.80;15.07;;;;;;;16.77;92.26;99801.72;8503871;27;20051;-83
2022/10/16 17:08:09;;;;;;;25.55;14.95;;;;;;;16.73;92.53;99806.25;8474322;27;20035;-83
2022/10/16 17:12:12;;;;;;;41.67;17.88;;;;;;;16.67;92.89;99817.66;8500952;27;20051;-83
2022/10/16 17:16:13;;;;;;;30.70;16.20;;;;;;;16.63;93.08;99816.75;8493563;27;20085;-82
2022/10/16 17:20:14;;;;;;;25.67;14.68;;;;;;;16.60;93.29;99823.66;8484042;27;20042;-83
2022/10/16 17:24:15;;;;;;;30.95;15.05;;;;;;;16.59;93.05;99843.09;8520955;27;20095;-83
2022/10/16 17:28:16;;;;;;;28.77;16.48;;;;;;;16.55;93.21;99839.41;8524976;27;20058;-82
2022/10/16 17:32:19;;;;;;;39.38;18.80;;;;;;;16.52;93.20;99842.75;8507738;27;20076;-83
2022/10/16 17:36:21;;;;;;;34.83;18.73;;;;;;;16.48;93.33;99842.63;8454898;27;20041;-82
2022/10/16 17:40:22;;;;;;;37.30;19.05;;;;;;;16.45;93.39;99854.97;8525254;27;20042;-81
2022/10/16 17:44:23;;;;;;;40.10;20.23;;;;;;;16.43;93.39;99854.53;8506345;27;20055;-82
2022/10/16 17:48:24;;;;;;;29.98;16.85;;;;;;;16.38;93.80;99860.19;8498278;27;20100;-82
2022/10/16 17:52:25;;;;;;;38.35;19.92;;;;;;;16.35;94.03;99860.81;8516609;27;20129;-82
2022/10/16 17:56:26;;;;;;;37.70;19.63;;;;;;;16.32;94.04;99855.22;8462490;27;20065;-82
2022/10/16 18:00:28;;;;;;;28.88;18.83;;;;;;;16.28;94.00;99866.00;8503788;27;20049;-82
2022/10/16 18:04:28;;;;;;;28.80;18.00;;;;;;;16.25;94.32;99866.63;8512952;27;20481;-83
2022/10/16 18:08:30;;;;;;;28.33;17.73;;;;;;;16.21;94.47;99875.81;8507361;27;20081;-83
2022/10/16 18:12:31;;;;;;;28.10;16.98;;;;;;;16.16;94.89;99868.59;8504303;27;20031;-82
2022/10/16 18:16:35;;;;;;;26.60;17.45;;;;;;;16.13;94.90;99880.16;8479301;27;20047;-83
2022/10/16 18:20:36;;;;;;;27.33;16.92;;;;;;;16.10;94.98;99882.72;8461560;27;20055;-83
2022/10/16 18:24:37;;;;;;;26.63;16.80;;;;;;;16.05;95.22;99884.50;8479930;27;20191;-82
2022/10/16 18:28:38;;;;;;;28.40;17.73;;;;;;;16.00;95.40;99897.50;8503811;27;20039;-83
2022/10/16 18:32:40;;;;;;;34.20;17.48;;;;;;;15.97;95.63;99898.16;8499692;27;20632;-82
2022/10/16 18:36:41;;;;;;;29.08;18.85;;;;;;;15.97;95.56;99898.94;8474164;27;20051;-83
2022/10/16 18:40:43;;;;;;;32.83;18.77;;;;;;;15.93;95.64;99903.47;8499920;27;20046;-81
2022/10/16 18:44:44;;;;;;;31.88;17.67;;;;;;;15.88;95.93;99911.00;8500946;27;20039;-83
2022/10/16 18:48:46;;;;;;;30.05;18.15;;;;;;;15.84;96.07;99910.06;8482836;27;20113;-83